Metar Aviation Weather Data 0S9 Jefferson County International

45°F Temp
39°F Dewpoint
81% Humidity
Temperature
7 MPH
11 KM/H
6 KTS
300°
West North
West

Wind Speed
Partly Cloudy
Conditions
Pressure 1006 (hPa) - 29.72 (in)
Visibility 10.0 (mi) - 16.1 (km)

Current Conditions
0S9
Jefferson County International
Metar :K0S9 120435Z AUTO 30006G11KT 10SM FEW042 SCT048 07/04 A2972 RMK AO2
Tue 11th December 21:35 pm

Jefferson County International
  Metar Aviation API Data Provided by https://www.checkwx.com/ PHP scripts by weather34.com ©2018